sensor_id;sensor_type;location;lat;lon;timestamp;temperature;humidity
29237;DHT22;16266;50.866;4.398;2022-09-17T00:00:36;11.30;99.90
29237;DHT22;16266;50.866;4.398;2022-09-17T00:03:02;11.20;99.90
29237;DHT22;16266;50.866;4.398;2022-09-17T00:05:28;11.30;99.90
29237;DHT22;16266;50.866;4.398;2022-09-17T00:07:54;11.40;99.90
29237;DHT22;16266;50.866;4.398;2022-09-17T00:10:20;11.40;99.90
29237;DHT22;16266;50.866;4.398;2022-09-17T00:12:48;11.50;99.90
29237;DHT22;16266;50.866;4.398;2022-09-17T00:15:15;11.50;99.90
29237;DHT22;16266;50.866;4.398;2022-09-17T00:17:41;11.60;99.90
29237;DHT22;16266;50.866;4.398;2022-09-17T00:20:08;11.60;99.90
29237;DHT22;16266;50.866;4.398;2022-09-17T00:22:37;11.60;99.90
29237;DHT22;16266;50.866;4.398;2022-09-17T00:25:04;11.60;99.90
29237;DHT22;16266;50.866;4.398;2022-09-17T00:27:30;11.60;99.90
29237;DHT22;16266;50.866;4.398;2022-09-17T00:29:56;11.70;99.90
29237;DHT22;16266;50.866;4.398;2022-09-17T00:32:22;11.50;99.90
29237;DHT22;16266;50.866;4.398;2022-09-17T00:34:49;11.60;99.90
29237;DHT22;16266;50.866;4.398;2022-09-17T00:37:17;11.40;99.90
29237;DHT22;16266;50.866;4.398;2022-09-17T00:39:42;11.40;99.90
29237;DHT22;16266;50.866;4.398;2022-09-17T00:42:12;11.30;99.90
29237;DHT22;16266;50.866;4.398;2022-09-17T00:44:51;11.40;99.90
29237;DHT22;16266;50.866;4.398;2022-09-17T00:47:28;11.30;99.90
29237;DHT22;16266;50.866;4.398;2022-09-17T00:50:00;11.30;99.90
29237;DHT22;16266;50.866;4.398;2022-09-17T00:52:33;11.40;99.90
29237;DHT22;16266;50.866;4.398;2022-09-17T00:55:44;11.40;99.90
29237;DHT22;16266;50.866;4.398;2022-09-17T00:57:53;11.50;99.90
29237;DHT22;16266;50.866;4.398;2022-09-17T01:00:19;11.50;99.90
29237;DHT22;16266;50.866;4.398;2022-09-17T01:02:45;11.60;99.90
29237;DHT22;16266;50.866;4.398;2022-09-17T01:05:12;11.70;99.90
29237;DHT22;16266;50.866;4.398;2022-09-17T01:08:05;11.70;99.90
29237;DHT22;16266;50.866;4.398;2022-09-17T01:13:58;11.90;99.90
29237;DHT22;16266;50.866;4.398;2022-09-17T01:16:30;11.90;99.90
29237;DHT22;16266;50.866;4.398;2022-09-17T01:32:22;11.80;99.90
29237;DHT22;16266;50.866;4.398;2022-09-17T01:35:20;11.80;99.90
29237;DHT22;16266;50.866;4.398;2022-09-17T01:41:05;11.80;99.90
29237;DHT22;16266;50.866;4.398;2022-09-17T01:48:40;11.70;99.90
29237;DHT22;16266;50.866;4.398;2022-09-17T01:51:11;11.60;99.90
29237;DHT22;16266;50.866;4.398;2022-09-17T01:53:43;11.60;99.90
29237;DHT22;16266;50.866;4.398;2022-09-17T01:56:14;11.70;99.90
29237;DHT22;16266;50.866;4.398;2022-09-17T01:58:56;11.70;99.90
29237;DHT22;16266;50.866;4.398;2022-09-17T02:01:24;11.70;99.90
29237;DHT22;16266;50.866;4.398;2022-09-17T02:04:00;11.60;99.90
29237;DHT22;16266;50.866;4.398;2022-09-17T02:06:30;11.60;99.90
29237;DHT22;16266;50.866;4.398;2022-09-17T02:09:04;11.60;99.90
29237;DHT22;16266;50.866;4.398;2022-09-17T02:11:34;11.60;99.90
29237;DHT22;16266;50.866;4.398;2022-09-17T02:14:23;11.70;99.90
29237;DHT22;16266;50.866;4.398;2022-09-17T02:16:57;11.70;99.90
29237;DHT22;16266;50.866;4.398;2022-09-17T02:19:31;11.70;99.90
29237;DHT22;16266;50.866;4.398;2022-09-17T02:30:14;11.70;99.90
29237;DHT22;16266;50.866;4.398;2022-09-17T02:32:40;11.70;99.90
29237;DHT22;16266;50.866;4.398;2022-09-17T02:35:08;11.70;99.90
29237;DHT22;16266;50.866;4.398;2022-09-17T02:37:33;11.70;99.90
29237;DHT22;16266;50.866;4.398;2022-09-17T02:39:59;11.60;99.90
29237;DHT22;16266;50.866;4.398;2022-09-17T02:45:23;11.60;99.90
29237;DHT22;16266;50.866;4.398;2022-09-17T02:58:37;11.70;99.90
29237;DHT22;16266;50.866;4.398;2022-09-17T03:01:09;11.70;99.90
29237;DHT22;16266;50.866;4.398;2022-09-17T03:03:42;11.60;99.90
29237;DHT22;16266;50.866;4.398;2022-09-17T03:06:08;11.60;99.90
29237;DHT22;16266;50.866;4.398;2022-09-17T03:08:36;11.60;99.90
29237;DHT22;16266;50.866;4.398;2022-09-17T03:11:04;11.50;99.90
29237;DHT22;16266;50.866;4.398;2022-09-17T03:13:30;11.30;99.90
29237;DHT22;16266;50.866;4.398;2022-09-17T03:15:56;11.20;99.90
29237;DHT22;16266;50.866;4.398;2022-09-17T03:18:22;11.20;99.90
29237;DHT22;16266;50.866;4.398;2022-09-17T03:20:48;11.00;99.90
29237;DHT22;16266;50.866;4.398;2022-09-17T03:23:14;10.90;99.90
29237;DHT22;16266;50.866;4.398;2022-09-17T03:25:40;10.80;99.90
29237;DHT22;16266;50.866;4.398;2022-09-17T03:28:06;10.80;99.90
29237;DHT22;16266;50.866;4.398;2022-09-17T03:30:32;10.70;99.90
29237;DHT22;16266;50.866;4.398;2022-09-17T03:32:57;10.70;99.90
29237;DHT22;16266;50.866;4.398;2022-09-17T03:35:23;10.60;99.90
29237;DHT22;16266;50.866;4.398;2022-09-17T03:37:49;10.60;99.90
29237;DHT22;16266;50.866;4.398;2022-09-17T03:40:15;10.60;99.90
29237;DHT22;16266;50.866;4.398;2022-09-17T03:42:41;10.70;99.90
29237;DHT22;16266;50.866;4.398;2022-09-17T03:45:07;10.80;99.90
29237;DHT22;16266;50.866;4.398;2022-09-17T03:47:32;10.70;99.90
29237;DHT22;16266;50.866;4.398;2022-09-17T03:49:58;10.70;99.90
29237;DHT22;16266;50.866;4.398;2022-09-17T03:52:23;10.60;99.90
29237;DHT22;16266;50.866;4.398;2022-09-17T03:54:49;10.50;99.90
29237;DHT22;16266;50.866;4.398;2022-09-17T03:57:14;10.50;99.90
29237;DHT22;16266;50.866;4.398;2022-09-17T03:59:41;10.40;99.90
29237;DHT22;16266;50.866;4.398;2022-09-17T04:02:06;10.30;99.90
29237;DHT22;16266;50.866;4.398;2022-09-17T04:04:32;10.30;99.90
29237;DHT22;16266;50.866;4.398;2022-09-17T04:06:57;10.30;99.90
29237;DHT22;16266;50.866;4.398;2022-09-17T04:09:23;10.30;99.90
29237;DHT22;16266;50.866;4.398;2022-09-17T04:11:48;10.40;99.90
29237;DHT22;16266;50.866;4.398;2022-09-17T04:14:14;10.40;99.90
29237;DHT22;16266;50.866;4.398;2022-09-17T04:16:40;10.40;99.90
29237;DHT22;16266;50.866;4.398;2022-09-17T04:19:05;10.40;99.90
29237;DHT22;16266;50.866;4.398;2022-09-17T04:21:31;10.30;99.90
29237;DHT22;16266;50.866;4.398;2022-09-17T04:23:56;10.20;99.90
29237;DHT22;16266;50.866;4.398;2022-09-17T04:26:22;10.30;99.90
29237;DHT22;16266;50.866;4.398;2022-09-17T04:28:48;10.20;99.90
29237;DHT22;16266;50.866;4.398;2022-09-17T04:31:14;10.10;99.90
29237;DHT22;16266;50.866;4.398;2022-09-17T04:33:40;10.20;99.90
29237;DHT22;16266;50.866;4.398;2022-09-17T04:36:05;10.10;99.90
29237;DHT22;16266;50.866;4.398;2022-09-17T04:38:31;10.10;99.90
29237;DHT22;16266;50.866;4.398;2022-09-17T04:40:58;10.10;99.90
29237;DHT22;16266;50.866;4.398;2022-09-17T04:43:23;10.10;99.90
29237;DHT22;16266;50.866;4.398;2022-09-17T04:45:49;10.00;99.90
29237;DHT22;16266;50.866;4.398;2022-09-17T04:48:15;10.10;99.90
29237;DHT22;16266;50.866;4.398;2022-09-17T04:50:40;10.10;99.90
29237;DHT22;16266;50.866;4.398;2022-09-17T04:53:06;10.30;99.90
29237;DHT22;16266;50.866;4.398;2022-09-17T04:55:31;10.30;99.90
29237;DHT22;16266;50.866;4.398;2022-09-17T04:57:57;10.30;99.90
29237;DHT22;16266;50.866;4.398;2022-09-17T05:00:23;10.40;99.90
29237;DHT22;16266;50.866;4.398;2022-09-17T05:02:50;10.40;99.90
29237;DHT22;16266;50.866;4.398;2022-09-17T05:05:17;10.40;99.90
29237;DHT22;16266;50.866;4.398;2022-09-17T05:07:43;10.40;99.90
29237;DHT22;16266;50.866;4.398;2022-09-17T05:10:10;10.30;99.90
29237;DHT22;16266;50.866;4.398;2022-09-17T05:12:36;10.30;99.90
29237;DHT22;16266;50.866;4.398;2022-09-17T05:15:04;10.20;99.90
29237;DHT22;16266;50.866;4.398;2022-09-17T05:17:30;10.10;99.90
29237;DHT22;16266;50.866;4.398;2022-09-17T05:19:56;10.20;99.90
29237;DHT22;16266;50.866;4.398;2022-09-17T05:22:21;10.20;99.90
29237;DHT22;16266;50.866;4.398;2022-09-17T05:24:47;10.20;99.90
29237;DHT22;16266;50.866;4.398;2022-09-17T05:27:12;10.20;99.90
29237;DHT22;16266;50.866;4.398;2022-09-17T05:29:38;10.40;99.90
29237;DHT22;16266;50.866;4.398;2022-09-17T05:32:04;10.50;99.90
29237;DHT22;16266;50.866;4.398;2022-09-17T05:34:30;10.70;99.90
29237;DHT22;16266;50.866;4.398;2022-09-17T05:36:56;10.80;99.90
29237;DHT22;16266;50.866;4.398;2022-09-17T05:39:21;10.90;99.90
29237;DHT22;16266;50.866;4.398;2022-09-17T05:41:50;11.00;99.90
29237;DHT22;16266;50.866;4.398;2022-09-17T05:44:16;11.10;99.90
29237;DHT22;16266;50.866;4.398;2022-09-17T05:46:42;11.20;99.90
29237;DHT22;16266;50.866;4.398;2022-09-17T05:49:08;11.20;99.90
29237;DHT22;16266;50.866;4.398;2022-09-17T05:51:34;11.20;99.90
29237;DHT22;16266;50.866;4.398;2022-09-17T05:53:59;11.30;99.90
29237;DHT22;16266;50.866;4.398;2022-09-17T05:56:25;11.20;99.90
29237;DHT22;16266;50.866;4.398;2022-09-17T05:58:54;11.20;99.90
29237;DHT22;16266;50.866;4.398;2022-09-17T06:01:21;11.20;99.90
29237;DHT22;16266;50.866;4.398;2022-09-17T06:03:46;11.30;99.90
29237;DHT22;16266;50.866;4.398;2022-09-17T06:06:12;11.30;99.90
29237;DHT22;16266;50.866;4.398;2022-09-17T06:08:38;11.50;99.90
29237;DHT22;16266;50.866;4.398;2022-09-17T06:11:07;11.60;99.90
29237;DHT22;16266;50.866;4.398;2022-09-17T06:13:33;11.60;99.90
29237;DHT22;16266;50.866;4.398;2022-09-17T06:15:59;11.70;99.90
29237;DHT22;16266;50.866;4.398;2022-09-17T06:18:27;11.80;99.90
29237;DHT22;16266;50.866;4.398;2022-09-17T06:20:54;11.90;99.90
29237;DHT22;16266;50.866;4.398;2022-09-17T06:23:20;12.00;99.90
29237;DHT22;16266;50.866;4.398;2022-09-17T06:26:05;12.10;99.90
29237;DHT22;16266;50.866;4.398;2022-09-17T06:28:31;12.20;99.90
29237;DHT22;16266;50.866;4.398;2022-09-17T06:31:01;12.40;99.90
29237;DHT22;16266;50.866;4.398;2022-09-17T06:33:27;12.50;99.90
29237;DHT22;16266;50.866;4.398;2022-09-17T06:35:56;12.80;99.90
29237;DHT22;16266;50.866;4.398;2022-09-17T06:38:25;12.90;99.90
29237;DHT22;16266;50.866;4.398;2022-09-17T06:40:51;13.00;99.90
29237;DHT22;16266;50.866;4.398;2022-09-17T06:43:17;13.10;99.90
29237;DHT22;16266;50.866;4.398;2022-09-17T06:45:43;13.10;99.90
29237;DHT22;16266;50.866;4.398;2022-09-17T06:48:08;13.00;99.90
29237;DHT22;16266;50.866;4.398;2022-09-17T06:50:34;12.90;99.90
29237;DHT22;16266;50.866;4.398;2022-09-17T06:52:59;12.70;99.90
29237;DHT22;16266;50.866;4.398;2022-09-17T06:55:25;12.70;99.90
29237;DHT22;16266;50.866;4.398;2022-09-17T06:57:52;12.90;99.90
29237;DHT22;16266;50.866;4.398;2022-09-17T07:00:18;13.10;99.90
29237;DHT22;16266;50.866;4.398;2022-09-17T07:02:54;13.40;99.90
29237;DHT22;16266;50.866;4.398;2022-09-17T07:05:19;13.60;99.90
29237;DHT22;16266;50.866;4.398;2022-09-17T07:07:45;13.70;99.90
29237;DHT22;16266;50.866;4.398;2022-09-17T07:10:10;14.10;99.90
29237;DHT22;16266;50.866;4.398;2022-09-17T07:12:39;14.50;99.90
29237;DHT22;16266;50.866;4.398;2022-09-17T07:15:06;14.80;99.90
29237;DHT22;16266;50.866;4.398;2022-09-17T07:17:32;14.40;99.90
29237;DHT22;16266;50.866;4.398;2022-09-17T07:19:57;14.30;99.90
29237;DHT22;16266;50.866;4.398;2022-09-17T07:22:24;13.90;99.90
29237;DHT22;16266;50.866;4.398;2022-09-17T07:24:49;13.60;99.90
29237;DHT22;16266;50.866;4.398;2022-09-17T07:27:15;13.50;99.90
29237;DHT22;16266;50.866;4.398;2022-09-17T07:29:40;13.40;99.90
29237;DHT22;16266;50.866;4.398;2022-09-17T07:32:06;13.20;99.90
29237;DHT22;16266;50.866;4.398;2022-09-17T07:34:32;13.20;99.90
29237;DHT22;16266;50.866;4.398;2022-09-17T07:36:57;13.40;99.90
29237;DHT22;16266;50.866;4.398;2022-09-17T07:39:23;13.50;99.90
29237;DHT22;16266;50.866;4.398;2022-09-17T07:41:49;14.00;99.90
29237;DHT22;16266;50.866;4.398;2022-09-17T07:44:14;14.40;99.90
29237;DHT22;16266;50.866;4.398;2022-09-17T07:46:40;14.70;99.90
29237;DHT22;16266;50.866;4.398;2022-09-17T07:49:05;14.90;99.90
29237;DHT22;16266;50.866;4.398;2022-09-17T07:51:31;15.10;99.90
29237;DHT22;16266;50.866;4.398;2022-09-17T07:53:58;15.30;99.90
29237;DHT22;16266;50.866;4.398;2022-09-17T07:56:25;15.10;99.90
29237;DHT22;16266;50.866;4.398;2022-09-17T07:58:51;15.70;99.90
29237;DHT22;16266;50.866;4.398;2022-09-17T08:01:17;16.20;99.90
29237;DHT22;16266;50.866;4.398;2022-09-17T08:03:47;16.20;99.90
29237;DHT22;16266;50.866;4.398;2022-09-17T08:06:15;16.60;99.90
29237;DHT22;16266;50.866;4.398;2022-09-17T08:08:42;16.70;99.90
29237;DHT22;16266;50.866;4.398;2022-09-17T08:11:10;16.40;99.90
29237;DHT22;16266;50.866;4.398;2022-09-17T08:13:36;16.20;99.90
29237;DHT22;16266;50.866;4.398;2022-09-17T08:16:04;15.90;99.90
29237;DHT22;16266;50.866;4.398;2022-09-17T08:18:31;15.50;99.90
29237;DHT22;16266;50.866;4.398;2022-09-17T08:20:58;15.00;99.90
29237;DHT22;16266;50.866;4.398;2022-09-17T08:23:24;14.70;99.90
29237;DHT22;16266;50.866;4.398;2022-09-17T08:25:54;14.60;99.90
29237;DHT22;16266;50.866;4.398;2022-09-17T08:28:20;14.40;99.90
29237;DHT22;16266;50.866;4.398;2022-09-17T08:30:46;14.50;99.90
29237;DHT22;16266;50.866;4.398;2022-09-17T08:33:13;14.80;99.90
29237;DHT22;16266;50.866;4.398;2022-09-17T08:35:39;14.80;99.90
29237;DHT22;16266;50.866;4.398;2022-09-17T08:38:05;15.00;99.90
29237;DHT22;16266;50.866;4.398;2022-09-17T08:40:32;15.50;99.90
29237;DHT22;16266;50.866;4.398;2022-09-17T08:43:01;17.30;99.90
29237;DHT22;16266;50.866;4.398;2022-09-17T08:45:27;19.10;99.90
29237;DHT22;16266;50.866;4.398;2022-09-17T08:48:03;20.90;99.90
29237;DHT22;16266;50.866;4.398;2022-09-17T08:50:35;20.80;99.90
29237;DHT22;16266;50.866;4.398;2022-09-17T08:53:37;19.90;99.90
29237;DHT22;16266;50.866;4.398;2022-09-17T08:56:12;19.20;99.90
29237;DHT22;16266;50.866;4.398;2022-09-17T09:04:24;17.80;99.90
29237;DHT22;16266;50.866;4.398;2022-09-17T09:07:08;19.40;99.90
29237;DHT22;16266;50.866;4.398;2022-09-17T09:09:38;19.90;99.90
29237;DHT22;16266;50.866;4.398;2022-09-17T09:12:11;19.90;99.90
29237;DHT22;16266;50.866;4.398;2022-09-17T09:14:48;19.30;99.90
29237;DHT22;16266;50.866;4.398;2022-09-17T09:17:17;18.60;99.90
29237;DHT22;16266;50.866;4.398;2022-09-17T09:19:44;18.20;99.90
29237;DHT22;16266;50.866;4.398;2022-09-17T09:22:35;17.90;99.90
29237;DHT22;16266;50.866;4.398;2022-09-17T09:28:04;18.50;99.90
29237;DHT22;16266;50.866;4.398;2022-09-17T09:30:54;19.80;99.90
29237;DHT22;16266;50.866;4.398;2022-09-17T09:33:29;19.60;99.90
29237;DHT22;16266;50.866;4.398;2022-09-17T09:35:55;18.80;99.90
29237;DHT22;16266;50.866;4.398;2022-09-17T09:38:43;18.40;99.90
29237;DHT22;16266;50.866;4.398;2022-09-17T09:44:08;18.40;99.90
29237;DHT22;16266;50.866;4.398;2022-09-17T09:52:19;17.80;99.90
29237;DHT22;16266;50.866;4.398;2022-09-17T09:55:02;17.00;99.90
29237;DHT22;16266;50.866;4.398;2022-09-17T09:57:44;17.20;99.90
29237;DHT22;16266;50.866;4.398;2022-09-17T10:00:30;17.40;99.90
29237;DHT22;16266;50.866;4.398;2022-09-17T10:05:29;18.20;99.90
29237;DHT22;16266;50.866;4.398;2022-09-17T10:07:55;18.50;99.90
29237;DHT22;16266;50.866;4.398;2022-09-17T10:10:21;18.80;99.90
29237;DHT22;16266;50.866;4.398;2022-09-17T10:12:47;19.50;99.90
29237;DHT22;16266;50.866;4.398;2022-09-17T10:15:25;19.30;99.90
29237;DHT22;16266;50.866;4.398;2022-09-17T10:18:21;18.90;99.90
29237;DHT22;16266;50.866;4.398;2022-09-17T10:20:55;18.50;99.90
29237;DHT22;16266;50.866;4.398;2022-09-17T10:23:23;17.90;99.90
29237;DHT22;16266;50.866;4.398;2022-09-17T10:25:49;17.40;99.90
29237;DHT22;16266;50.866;4.398;2022-09-17T10:28:44;17.30;99.90
29237;DHT22;16266;50.866;4.398;2022-09-17T10:31:11;17.20;99.90
29237;DHT22;16266;50.866;4.398;2022-09-17T10:36:17;17.40;99.90
29237;DHT22;16266;50.866;4.398;2022-09-17T10:39:28;16.80;99.90
29237;DHT22;16266;50.866;4.398;2022-09-17T10:41:55;16.70;99.90
29237;DHT22;16266;50.866;4.398;2022-09-17T10:44:24;16.50;99.90
29237;DHT22;16266;50.866;4.398;2022-09-17T10:46:50;16.60;99.90
29237;DHT22;16266;50.866;4.398;2022-09-17T10:49:33;16.90;99.90
29237;DHT22;16266;50.866;4.398;2022-09-17T10:52:24;17.00;99.90
29237;DHT22;16266;50.866;4.398;2022-09-17T11:00:22;17.30;99.90
29237;DHT22;16266;50.866;4.398;2022-09-17T11:11:28;17.60;99.90
29237;DHT22;16266;50.866;4.398;2022-09-17T11:31:20;15.40;99.90
29237;DHT22;16266;50.866;4.398;2022-09-17T11:37:13;15.10;99.90
29237;DHT22;16266;50.866;4.398;2022-09-17T11:39:46;14.90;99.90
29237;DHT22;16266;50.866;4.398;2022-09-17T11:42:27;15.10;99.90
29237;DHT22;16266;50.866;4.398;2022-09-17T11:45:00;15.30;99.90
29237;DHT22;16266;50.866;4.398;2022-09-17T11:47:33;15.80;99.90
29237;DHT22;16266;50.866;4.398;2022-09-17T11:55:22;16.00;99.90
29237;DHT22;16266;50.866;4.398;2022-09-17T11:57:59;16.20;99.90
29237;DHT22;16266;50.866;4.398;2022-09-17T12:00:28;16.60;99.90
29237;DHT22;16266;50.866;4.398;2022-09-17T12:03:22;17.20;99.90
29237;DHT22;16266;50.866;4.398;2022-09-17T12:05:52;17.90;99.90
29237;DHT22;16266;50.866;4.398;2022-09-17T12:08:37;18.50;99.90
29237;DHT22;16266;50.866;4.398;2022-09-17T12:11:17;19.20;99.90
29237;DHT22;16266;50.866;4.398;2022-09-17T12:14:08;20.10;99.90
29237;DHT22;16266;50.866;4.398;2022-09-17T12:16:37;21.00;99.90
29237;DHT22;16266;50.866;4.398;2022-09-17T12:22:33;20.20;99.90
29237;DHT22;16266;50.866;4.398;2022-09-17T12:25:00;22.10;99.90
29237;DHT22;16266;50.866;4.398;2022-09-17T12:38:25;22.30;99.90
29237;DHT22;16266;50.866;4.398;2022-09-17T12:52:01;18.40;99.90
29237;DHT22;16266;50.866;4.398;2022-09-17T13:11:07;14.90;99.90
29237;DHT22;16266;50.866;4.398;2022-09-17T13:13:59;14.60;99.90
29237;DHT22;16266;50.866;4.398;2022-09-17T13:16:40;14.30;99.90
29237;DHT22;16266;50.866;4.398;2022-09-17T13:22:13;13.90;99.90
29237;DHT22;16266;50.866;4.398;2022-09-17T13:24:41;14.40;99.90
29237;DHT22;16266;50.866;4.398;2022-09-17T13:27:22;14.60;99.90
29237;DHT22;16266;50.866;4.398;2022-09-17T13:37:35;15.30;99.90
29237;DHT22;16266;50.866;4.398;2022-09-17T13:40:04;15.50;99.90
29237;DHT22;16266;50.866;4.398;2022-09-17T13:42:52;15.50;99.90
29237;DHT22;16266;50.866;4.398;2022-09-17T13:45:20;15.70;99.90
29237;DHT22;16266;50.866;4.398;2022-09-17T13:50:31;16.30;99.90
29237;DHT22;16266;50.866;4.398;2022-09-17T13:58:05;17.30;99.90
29237;DHT22;16266;50.866;4.398;2022-09-17T14:21:59;15.80;99.90
29237;DHT22;16266;50.866;4.398;2022-09-17T14:27:33;16.70;99.90
29237;DHT22;16266;50.866;4.398;2022-09-17T14:30:20;17.00;99.90
29237;DHT22;16266;50.866;4.398;2022-09-17T14:35:40;15.50;99.90
29237;DHT22;16266;50.866;4.398;2022-09-17T14:38:22;14.70;99.90
29237;DHT22;16266;50.866;4.398;2022-09-17T14:46:41;14.10;99.90
29237;DHT22;16266;50.866;4.398;2022-09-17T14:49:22;14.00;99.90
29237;DHT22;16266;50.866;4.398;2022-09-17T14:51:49;13.90;99.90
29237;DHT22;16266;50.866;4.398;2022-09-17T14:59:55;14.30;99.90
29237;DHT22;16266;50.866;4.398;2022-09-17T15:02:37;14.60;99.90
29237;DHT22;16266;50.866;4.398;2022-09-17T15:05:33;14.50;99.90
29237;DHT22;16266;50.866;4.398;2022-09-17T15:08:13;14.60;99.90
29237;DHT22;16266;50.866;4.398;2022-09-17T15:14:09;14.70;99.90
29237;DHT22;16266;50.866;4.398;2022-09-17T15:16:27;14.80;99.90
29237;DHT22;16266;50.866;4.398;2022-09-17T15:18:59;15.00;99.90
29237;DHT22;16266;50.866;4.398;2022-09-17T15:23:53;15.30;99.90
29237;DHT22;16266;50.866;4.398;2022-09-17T15:26:28;15.40;99.90
29237;DHT22;16266;50.866;4.398;2022-09-17T15:28:56;15.20;99.90
29237;DHT22;16266;50.866;4.398;2022-09-17T15:31:23;15.00;99.90
29237;DHT22;16266;50.866;4.398;2022-09-17T15:33:49;14.80;99.90
29237;DHT22;16266;50.866;4.398;2022-09-17T15:38:40;14.60;99.90
29237;DHT22;16266;50.866;4.398;2022-09-17T15:44:25;14.70;99.90
29237;DHT22;16266;50.866;4.398;2022-09-17T15:46:52;14.80;99.90
29237;DHT22;16266;50.866;4.398;2022-09-17T15:49:28;14.90;99.90
29237;DHT22;16266;50.866;4.398;2022-09-17T15:51:54;14.90;99.90
29237;DHT22;16266;50.866;4.398;2022-09-17T15:54:30;15.00;99.90
29237;DHT22;16266;50.866;4.398;2022-09-17T15:56:59;15.10;99.90
29237;DHT22;16266;50.866;4.398;2022-09-17T15:59:30;15.20;99.90
29237;DHT22;16266;50.866;4.398;2022-09-17T16:01:58;15.20;99.90
29237;DHT22;16266;50.866;4.398;2022-09-17T16:04:27;14.90;99.90
29237;DHT22;16266;50.866;4.398;2022-09-17T16:12:07;13.60;99.90
29237;DHT22;16266;50.866;4.398;2022-09-17T16:14:35;13.50;99.90
29237;DHT22;16266;50.866;4.398;2022-09-17T16:17:14;13.60;99.90
29237;DHT22;16266;50.866;4.398;2022-09-17T16:19:42;13.60;99.90
29237;DHT22;16266;50.866;4.398;2022-09-17T16:22:08;13.80;99.90
29237;DHT22;16266;50.866;4.398;2022-09-17T16:24:33;14.00;99.90
29237;DHT22;16266;50.866;4.398;2022-09-17T16:26:59;14.20;99.90
29237;DHT22;16266;50.866;4.398;2022-09-17T16:29:24;14.20;99.90
29237;DHT22;16266;50.866;4.398;2022-09-17T16:31:50;14.30;99.90
29237;DHT22;16266;50.866;4.398;2022-09-17T16:34:16;14.20;99.90
29237;DHT22;16266;50.866;4.398;2022-09-17T16:36:42;14.00;99.90
29237;DHT22;16266;50.866;4.398;2022-09-17T16:39:07;13.80;99.90
29237;DHT22;16266;50.866;4.398;2022-09-17T16:41:33;13.70;99.90
29237;DHT22;16266;50.866;4.398;2022-09-17T16:43:58;13.70;99.90
29237;DHT22;16266;50.866;4.398;2022-09-17T16:46:24;13.60;99.90
29237;DHT22;16266;50.866;4.398;2022-09-17T16:48:50;13.30;99.90
29237;DHT22;16266;50.866;4.398;2022-09-17T16:51:16;13.20;99.90
29237;DHT22;16266;50.866;4.398;2022-09-17T16:53:41;13.10;99.90
29237;DHT22;16266;50.866;4.398;2022-09-17T16:56:08;13.00;99.90
29237;DHT22;16266;50.866;4.398;2022-09-17T16:58:34;13.00;99.90
29237;DHT22;16266;50.866;4.398;2022-09-17T17:01:08;13.00;99.90
29237;DHT22;16266;50.866;4.398;2022-09-17T17:03:34;12.90;99.90
29237;DHT22;16266;50.866;4.398;2022-09-17T17:05:59;12.90;99.90
29237;DHT22;16266;50.866;4.398;2022-09-17T17:08:25;12.80;99.90
29237;DHT22;16266;50.866;4.398;2022-09-17T17:10:51;12.90;99.90
29237;DHT22;16266;50.866;4.398;2022-09-17T17:13:16;12.90;99.90
29237;DHT22;16266;50.866;4.398;2022-09-17T17:15:42;12.90;99.90
29237;DHT22;16266;50.866;4.398;2022-09-17T17:18:07;13.00;99.90
29237;DHT22;16266;50.866;4.398;2022-09-17T17:20:36;12.90;99.90
29237;DHT22;16266;50.866;4.398;2022-09-17T17:23:02;12.80;99.90
29237;DHT22;16266;50.866;4.398;2022-09-17T17:25:29;12.60;99.90
29237;DHT22;16266;50.866;4.398;2022-09-17T17:27:55;12.50;99.90
29237;DHT22;16266;50.866;4.398;2022-09-17T17:30:21;12.40;99.90
29237;DHT22;16266;50.866;4.398;2022-09-17T17:32:51;12.50;99.90
29237;DHT22;16266;50.866;4.398;2022-09-17T17:35:17;12.40;99.90
29237;DHT22;16266;50.866;4.398;2022-09-17T17:37:43;12.50;99.90
29237;DHT22;16266;50.866;4.398;2022-09-17T17:40:09;12.60;99.90
29237;DHT22;16266;50.866;4.398;2022-09-17T17:42:35;12.50;99.90
29237;DHT22;16266;50.866;4.398;2022-09-17T17:45:04;12.60;99.90
29237;DHT22;16266;50.866;4.398;2022-09-17T17:47:30;12.60;99.90
29237;DHT22;16266;50.866;4.398;2022-09-17T17:49:56;12.50;99.90
29237;DHT22;16266;50.866;4.398;2022-09-17T17:52:21;12.60;99.90
29237;DHT22;16266;50.866;4.398;2022-09-17T17:54:47;12.60;99.90
29237;DHT22;16266;50.866;4.398;2022-09-17T17:57:13;12.50;99.90
29237;DHT22;16266;50.866;4.398;2022-09-17T17:59:38;12.50;99.90
29237;DHT22;16266;50.866;4.398;2022-09-17T18:02:04;12.50;99.90
29237;DHT22;16266;50.866;4.398;2022-09-17T18:04:29;12.50;99.90
29237;DHT22;16266;50.866;4.398;2022-09-17T18:06:55;12.40;99.90
29237;DHT22;16266;50.866;4.398;2022-09-17T18:09:20;12.50;99.90
29237;DHT22;16266;50.866;4.398;2022-09-17T18:11:46;12.50;99.90
29237;DHT22;16266;50.866;4.398;2022-09-17T18:14:12;12.50;99.90
29237;DHT22;16266;50.866;4.398;2022-09-17T18:16:38;12.50;99.90
29237;DHT22;16266;50.866;4.398;2022-09-17T18:19:05;12.60;99.90
29237;DHT22;16266;50.866;4.398;2022-09-17T18:21:31;12.60;99.90
29237;DHT22;16266;50.866;4.398;2022-09-17T18:23:56;12.60;99.90
29237;DHT22;16266;50.866;4.398;2022-09-17T18:26:24;12.70;99.90
29237;DHT22;16266;50.866;4.398;2022-09-17T18:28:50;12.60;99.90
29237;DHT22;16266;50.866;4.398;2022-09-17T18:31:28;12.60;99.90
29237;DHT22;16266;50.866;4.398;2022-09-17T18:34:02;12.60;99.90
29237;DHT22;16266;50.866;4.398;2022-09-17T18:36:30;12.60;99.90
29237;DHT22;16266;50.866;4.398;2022-09-17T18:38:58;12.60;99.90
29237;DHT22;16266;50.866;4.398;2022-09-17T18:41:35;12.70;99.90
29237;DHT22;16266;50.866;4.398;2022-09-17T18:44:03;12.80;99.90
29237;DHT22;16266;50.866;4.398;2022-09-17T18:46:29;12.80;99.90
29237;DHT22;16266;50.866;4.398;2022-09-17T18:48:56;12.70;99.90
29237;DHT22;16266;50.866;4.398;2022-09-17T18:51:23;12.70;99.90
29237;DHT22;16266;50.866;4.398;2022-09-17T18:53:49;12.70;99.90
29237;DHT22;16266;50.866;4.398;2022-09-17T18:56:25;12.60;99.90
29237;DHT22;16266;50.866;4.398;2022-09-17T18:58:52;12.60;99.90
29237;DHT22;16266;50.866;4.398;2022-09-17T19:01:21;12.60;99.90
29237;DHT22;16266;50.866;4.398;2022-09-17T19:03:47;12.70;99.90
29237;DHT22;16266;50.866;4.398;2022-09-17T19:06:14;12.70;99.90
29237;DHT22;16266;50.866;4.398;2022-09-17T19:08:41;12.70;99.90
29237;DHT22;16266;50.866;4.398;2022-09-17T19:11:09;12.70;99.90
29237;DHT22;16266;50.866;4.398;2022-09-17T19:13:43;12.70;99.90
29237;DHT22;16266;50.866;4.398;2022-09-17T19:16:10;12.80;99.90
29237;DHT22;16266;50.866;4.398;2022-09-17T19:18:37;12.80;99.90
29237;DHT22;16266;50.866;4.398;2022-09-17T19:21:20;12.80;99.90
29237;DHT22;16266;50.866;4.398;2022-09-17T19:23:50;12.80;99.90
29237;DHT22;16266;50.866;4.398;2022-09-17T19:26:18;12.80;99.90
29237;DHT22;16266;50.866;4.398;2022-09-17T19:28:44;12.90;99.90